Time;durP1;ratioP1;P1;durP2;ratioP2;P2;SDS_P1;SDS_P2;PMS_P1;PMS_P2;Temp;Humidity;BMP_temperature;BMP_pressure;BME280_temperature;BME280_humidity;BME280_pressure;Samples;Min_cycle;Max_cycle;Signal;HPM_P1;HPM_P2
2023/04/01 00:01:49;;;;;;;20.92;13.52;;;;;;;17.68;89.25;98473.72;4945397;28;20462;-66
2023/04/01 00:04:18;;;;;;;19.33;12.85;;;;;;;17.59;89.23;98475.19;4942806;28;20364;-66
2023/04/01 00:06:48;;;;;;;20.73;13.02;;;;;;;17.71;89.19;98472.41;4923323;29;20044;-67
2023/04/01 00:09:17;;;;;;;29.25;14.45;;;;;;;17.61;89.12;98473.09;4942543;29;20052;-66
2023/04/01 00:11:46;;;;;;;25.75;14.32;;;;;;;17.65;90.22;98474.22;4945263;29;20082;-66
2023/04/01 00:14:16;;;;;;;31.23;13.57;;;;;;;17.82;90.48;98472.34;4942075;29;20155;-66
2023/04/01 00:16:45;;;;;;;24.30;14.65;;;;;;;17.85;89.89;98479.88;4945410;29;20051;-65
2023/04/01 00:19:15;;;;;;;24.50;14.43;;;;;;;17.75;90.19;98477.03;4942369;29;20059;-65
2023/04/01 00:21:45;;;;;;;24.42;13.43;;;;;;;17.73;90.41;98487.22;4943202;29;20070;-66
2023/04/01 00:24:14;;;;;;;25.65;15.00;;;;;;;17.63;90.21;98481.69;4942134;29;20062;-66
2023/04/01 00:26:44;;;;;;;25.48;15.13;;;;;;;17.69;90.32;98486.06;4925247;29;20142;-65
2023/04/01 00:29:13;;;;;;;26.38;15.23;;;;;;;17.76;90.53;98492.06;4943160;29;20055;-67
2023/04/01 00:31:43;;;;;;;24.58;14.85;;;;;;;17.66;90.27;98481.19;4943495;29;20058;-67
2023/04/01 00:34:13;;;;;;;23.23;14.98;;;;;;;17.57;90.73;98487.19;4944154;29;20067;-66
2023/04/01 00:36:42;;;;;;;28.52;15.35;;;;;;;17.63;91.41;98487.03;4924973;29;20083;-67
2023/04/01 00:39:11;;;;;;;25.52;15.57;;;;;;;17.65;90.93;98489.47;4940579;29;20118;-65
2023/04/01 00:41:41;;;;;;;26.85;16.35;;;;;;;17.63;90.91;98492.38;4944754;28;20054;-65
2023/04/01 00:44:23;;;;;;;29.02;16.10;;;;;;;17.66;90.66;98491.13;4927305;28;20044;-66
2023/04/01 00:46:52;;;;;;;27.48;15.65;;;;;;;17.67;91.15;98495.38;4929036;29;20099;-66
2023/04/01 00:49:30;;;;;;;29.02;16.40;;;;;;;17.75;90.90;98501.16;4948230;28;20059;-66
2023/04/01 00:52:03;;;;;;;30.13;16.35;;;;;;;17.61;90.34;98501.75;4959471;28;20057;-65
2023/04/01 00:54:34;;;;;;;29.08;16.67;;;;;;;17.62;90.47;98506.81;4924522;29;20052;-67
2023/04/01 00:57:21;;;;;;;28.50;16.13;;;;;;;17.72;90.50;98507.00;4924911;29;20138;-65
2023/04/01 00:59:54;;;;;;;24.95;15.88;;;;;;;17.62;90.73;98497.97;4942127;28;20087;-65
2023/04/01 01:02:24;;;;;;;28.15;16.55;;;;;;;17.79;91.16;98512.22;4930947;28;20138;-65
2023/04/01 01:04:53;;;;;;;29.17;16.02;;;;;;;17.83;90.55;98505.31;4934040;29;20055;-65
2023/04/01 01:08:01;;;;;;;28.48;15.98;;;;;;;17.91;90.40;98520.97;4959866;28;20043;-66
2023/04/01 01:10:34;;;;;;;25.35;15.15;;;;;;;17.82;89.75;98515.22;4948204;29;20130;-66
2023/04/01 01:13:06;;;;;;;27.65;16.73;;;;;;;17.87;90.11;98520.66;4924990;29;20044;-66
2023/04/01 01:15:47;;;;;;;27.55;16.75;;;;;;;17.86;89.76;98520.91;4926715;29;20072;-66
2023/04/01 01:18:36;;;;;;;29.25;16.88;;;;;;;17.80;89.54;98519.19;4946821;28;20137;-67
2023/04/01 01:21:36;;;;;;;29.55;16.67;;;;;;;17.59;89.81;98528.75;4928597;29;20376;-65
2023/04/01 01:24:11;;;;;;;29.20;16.15;;;;;;;17.69;90.11;98526.25;4932326;29;20055;-65
2023/04/01 01:27:00;;;;;;;27.65;16.65;;;;;;;17.78;89.86;98526.66;4948116;28;20487;-65
2023/04/01 01:29:50;;;;;;;35.40;16.52;;;;;;;17.76;89.67;98529.56;4928019;29;20044;-66
2023/04/01 01:32:28;;;;;;;32.88;17.92;;;;;;;17.71;89.66;98534.84;4927116;29;20051;-64
2023/04/01 01:35:19;;;;;;;28.25;17.35;;;;;;;17.70;89.76;98543.13;4928840;29;20051;-65
2023/04/01 01:37:54;;;;;;;34.15;17.08;;;;;;;17.67;89.52;98547.09;4935472;29;20138;-66
2023/04/01 01:40:26;;;;;;;29.65;17.17;;;;;;;17.69;90.04;98545.00;4939971;29;20740;-65
2023/04/01 01:43:00;;;;;;;31.00;16.13;;;;;;;17.76;90.27;98551.00;4927455;29;20046;-66
2023/04/01 01:45:33;;;;;;;30.60;16.48;;;;;;;17.91;90.39;98553.13;4927696;29;20788;-65
2023/04/01 01:48:05;;;;;;;33.97;16.73;;;;;;;17.87;89.50;98552.81;4943800;28;20050;-67
2023/04/01 01:50:36;;;;;;;30.40;17.55;;;;;;;17.80;89.56;98552.13;4947889;29;20058;-66
2023/04/01 01:53:11;;;;;;;35.10;17.75;;;;;;;17.80;89.79;98551.31;4955963;28;20526;-65
2023/04/01 01:55:44;;;;;;;29.85;15.85;;;;;;;17.99;90.30;98562.63;4943577;28;20055;-65
2023/04/01 01:58:44;;;;;;;31.23;17.42;;;;;;;17.89;89.56;98565.94;4955119;28;20058;-65
2023/04/01 02:01:26;;;;;;;29.75;17.50;;;;;;;17.98;89.65;98569.03;4926215;29;20052;-66
2023/04/01 02:04:02;;;;;;;34.10;17.73;;;;;;;17.90;89.26;98572.94;4937456;28;20051;-64
2023/04/01 02:06:37;;;;;;;30.48;17.30;;;;;;;17.87;88.54;98576.94;4947194;29;20110;-65
2023/04/01 02:09:10;;;;;;;29.63;17.95;;;;;;;17.83;89.15;98583.81;4950747;28;20822;-63
2023/04/01 02:11:57;;;;;;;33.67;16.98;;;;;;;17.76;89.44;98583.16;4945392;28;20055;-63
2023/04/01 02:14:36;;;;;;;34.15;17.20;;;;;;;17.80;89.25;98578.94;4940038;29;20069;-65
2023/04/01 02:17:18;;;;;;;28.60;16.85;;;;;;;18.02;89.45;98581.72;4943602;29;20054;-65
2023/04/01 02:19:58;;;;;;;30.33;17.13;;;;;;;18.04;89.07;98586.84;4927236;29;20759;-66
2023/04/01 02:22:33;;;;;;;29.70;17.40;;;;;;;17.90;88.71;98584.47;4916415;29;20055;-65
2023/04/01 02:25:14;;;;;;;29.05;17.15;;;;;;;18.01;88.91;98595.38;4937572;28;20053;-67
2023/04/01 02:27:45;;;;;;;33.15;18.85;;;;;;;17.84;88.93;98590.78;4947340;29;20050;-65
2023/04/01 02:30:16;;;;;;;38.35;19.67;;;;;;;17.83;89.20;98594.53;4929294;29;20043;-64
2023/04/01 02:32:48;;;;;;;29.42;17.60;;;;;;;17.92;88.65;98594.97;4925523;29;20048;-67
2023/04/01 02:35:18;;;;;;;30.67;18.67;;;;;;;17.90;89.26;98594.38;4941729;28;20065;-67
2023/04/01 02:37:50;;;;;;;35.17;18.45;;;;;;;18.06;89.46;98596.25;4965439;28;20051;-67
2023/04/01 02:40:20;;;;;;;33.43;21.07;;;;;;;18.05;89.05;98608.03;4945143;29;20490;-65
2023/04/01 02:42:49;;;;;;;30.80;19.35;;;;;;;18.06;89.23;98604.28;4945723;29;20588;-66
2023/04/01 02:45:19;;;;;;;30.00;19.95;;;;;;;18.05;88.39;98612.59;4955397;28;20066;-65
2023/04/01 02:47:48;;;;;;;32.13;20.05;;;;;;;18.24;88.79;98606.72;4927836;29;20048;-66
2023/04/01 02:50:18;;;;;;;33.65;19.92;;;;;;;18.32;87.57;98610.88;4931653;29;20055;-66
2023/04/01 02:52:47;;;;;;;31.55;20.58;;;;;;;18.34;87.82;98614.13;4952225;28;20051;-67
2023/04/01 02:55:16;;;;;;;30.08;19.85;;;;;;;18.39;88.14;98615.03;4926045;29;20055;-67
2023/04/01 02:57:46;;;;;;;36.03;21.40;;;;;;;18.50;88.15;98626.69;4926474;29;20888;-66
2023/04/01 03:00:16;;;;;;;30.88;19.15;;;;;;;18.45;87.21;98626.66;4938543;29;20047;-65
2023/04/01 03:02:45;;;;;;;29.60;18.15;;;;;;;18.68;87.73;98618.41;4946089;28;20047;-66
2023/04/01 03:05:15;;;;;;;32.22;19.45;;;;;;;18.50;86.11;98629.38;4917262;29;20535;-65
2023/04/01 03:07:45;;;;;;;31.98;19.83;;;;;;;18.40;86.49;98627.38;4925796;29;20464;-66
2023/04/01 03:10:15;;;;;;;31.52;20.08;;;;;;;18.62;86.92;98615.94;4940674;28;20051;-65
2023/04/01 03:12:45;;;;;;;27.67;18.45;;;;;;;18.65;86.07;98624.28;4938665;29;20492;-64
2023/04/01 03:15:15;;;;;;;32.65;19.13;;;;;;;18.58;87.12;98623.66;4925695;29;20043;-65
2023/04/01 03:17:46;;;;;;;31.40;20.23;;;;;;;18.71;86.69;98633.22;4938137;29;20602;-65
2023/04/01 03:20:16;;;;;;;30.95;20.00;;;;;;;18.80;86.36;98627.19;4925542;29;20721;-65
2023/04/01 03:22:46;;;;;;;35.08;20.25;;;;;;;18.74;85.46;98633.53;4937200;29;20051;-65
2023/04/01 03:25:18;;;;;;;32.03;19.52;;;;;;;18.71;85.73;98636.72;4928405;29;20051;-65
2023/04/01 03:27:47;;;;;;;35.80;20.98;;;;;;;18.76;85.45;98633.31;4946411;29;20447;-65
2023/04/01 03:30:17;;;;;;;33.20;21.05;;;;;;;18.79;85.29;98628.25;4945238;28;20054;-64
2023/04/01 03:32:50;;;;;;;;;;;;;;;18.84;85.53;98638.25;4933721;29;20055;-64
2023/04/01 03:35:19;;;;;;;36.60;21.55;;;;;;;18.78;84.52;98639.22;4945543;28;20287;-65
2023/04/01 03:37:51;;;;;;;30.50;20.70;;;;;;;18.77;85.16;98637.59;4929161;29;20051;-66
2023/04/01 03:40:22;;;;;;;36.63;20.75;;;;;;;18.88;85.06;98643.94;4928327;28;20047;-65
2023/04/01 03:42:53;;;;;;;30.90;20.70;;;;;;;19.06;84.58;98641.78;4945083;28;20126;-64
2023/04/01 03:45:22;;;;;;;31.00;21.23;;;;;;;19.19;84.98;98640.59;4929215;29;20147;-66
2023/04/01 03:47:52;;;;;;;35.55;21.23;;;;;;;19.18;84.16;98649.69;4913591;29;20510;-64
2023/04/01 03:50:21;;;;;;;32.00;20.45;;;;;;;19.02;83.41;98656.75;4928274;29;20152;-65
2023/04/01 03:52:51;;;;;;;33.05;21.50;;;;;;;19.30;83.99;98653.06;4945715;28;20847;-66
2023/04/01 03:55:21;;;;;;;34.08;21.23;;;;;;;19.08;83.39;98662.97;4952419;28;20055;-65
2023/04/01 03:57:50;;;;;;;31.85;20.30;;;;;;;19.18;83.59;98658.56;4922841;29;20051;-65
2023/04/01 04:00:20;;;;;;;32.50;20.92;;;;;;;19.26;83.36;98668.06;4924617;29;20047;-65
2023/04/01 04:02:56;;;;;;;30.45;19.73;;;;;;;19.37;83.82;98663.63;4940332;28;20065;-64
2023/04/01 04:05:31;;;;;;;31.42;21.45;;;;;;;19.36;82.37;98665.50;4923429;29;20808;-65
2023/04/01 04:08:01;;;;;;;31.90;20.73;;;;;;;19.37;82.72;98667.13;4909942;29;20043;-65
2023/04/01 04:10:31;;;;;;;36.97;21.52;;;;;;;19.52;83.24;98675.41;4909676;29;20144;-64
2023/04/01 04:13:01;;;;;;;36.97;21.80;;;;;;;19.50;82.06;98674.84;4940923;28;20683;-65
2023/04/01 04:15:33;;;;;;;33.85;21.75;;;;;;;19.43;81.86;98678.78;4927828;29;20126;-66
2023/04/01 04:18:03;;;;;;;31.50;22.35;;;;;;;19.56;82.58;98675.72;4945531;29;20043;-66
2023/04/01 04:20:32;;;;;;;35.00;23.58;;;;;;;19.75;81.31;98685.06;4945732;29;20067;-66
2023/04/01 04:23:02;;;;;;;36.30;22.10;;;;;;;19.89;80.97;98678.25;4946586;28;20151;-66
2023/04/01 04:25:32;;;;;;;31.42;24.20;;;;;;;19.93;80.53;98682.03;4924679;29;20051;-66
2023/04/01 04:28:01;;;;;;;35.13;25.40;;;;;;;20.13;81.41;98690.34;4932072;28;20054;-66
2023/04/01 04:30:30;;;;;;;44.08;27.50;;;;;;;20.08;79.73;98686.78;4950135;28;20047;-64
2023/04/01 04:33:00;;;;;;;38.60;27.42;;;;;;;20.16;81.34;98689.00;4934443;29;20834;-65
2023/04/01 04:35:29;;;;;;;36.47;27.90;;;;;;;20.29;81.47;98690.47;4924985;29;20799;-66
2023/04/01 04:38:00;;;;;;;37.15;28.27;;;;;;;20.14;79.60;98691.94;4930223;29;20047;-65
2023/04/01 04:40:29;;;;;;;38.35;29.73;;;;;;;20.28;79.58;98692.34;4924121;29;20477;-66
2023/04/01 04:42:59;;;;;;;43.92;31.25;;;;;;;20.36;78.82;98696.47;4922557;29;20044;-65
2023/04/01 04:45:28;;;;;;;41.65;30.92;;;;;;;20.50;79.11;98703.03;4943902;29;20047;-66
2023/04/01 04:47:59;;;;;;;54.53;35.58;;;;;;;20.25;77.87;98698.22;4944519;29;20051;-64
2023/04/01 04:50:29;;;;;;;47.40;31.75;;;;;;;20.28;78.80;98696.91;4946195;28;20137;-65
2023/04/01 04:52:59;;;;;;;41.38;30.95;;;;;;;20.14;79.15;98699.19;4952240;28;20071;-64
2023/04/01 04:55:28;;;;;;;56.67;36.60;;;;;;;20.59;81.41;98706.88;4927957;29;20110;-63
2023/04/01 04:58:19;;;;;;;50.13;35.63;;;;;;;20.65;79.89;98699.66;4943805;29;20839;-64
2023/04/01 05:00:49;;;;;;;50.80;34.63;;;;;;;20.47;78.54;98707.06;4950336;28;20055;-66
2023/04/01 05:03:24;;;;;;;53.05;35.50;;;;;;;20.51;78.06;98704.66;4916775;29;20102;-65
2023/04/01 05:05:54;;;;;;;47.20;34.05;;;;;;;20.86;77.85;98704.94;4936280;29;20047;-64
2023/04/01 05:08:24;;;;;;;51.67;34.92;;;;;;;21.04;76.86;98709.91;4927291;29;20142;-67
2023/04/01 05:10:54;;;;;;;50.45;35.17;;;;;;;21.05;74.97;98710.72;4927359;28;20126;-66
2023/04/01 05:13:24;;;;;;;49.05;34.53;;;;;;;20.96;75.21;98709.59;4921388;29;20788;-66
2023/04/01 05:15:54;;;;;;;49.05;35.33;;;;;;;21.46;75.94;98704.50;4925075;29;20059;-66
2023/04/01 05:18:23;;;;;;;52.33;36.45;;;;;;;21.79;75.44;98705.19;4937684;28;20055;-66
2023/04/01 05:20:54;;;;;;;57.28;40.72;;;;;;;21.58;73.51;98707.00;4944789;29;20561;-66
2023/04/01 05:23:23;;;;;;;55.83;39.80;;;;;;;21.94;75.02;98708.78;4944191;28;20086;-65
2023/04/01 05:25:53;;;;;;;51.72;38.95;;;;;;;21.40;72.88;98705.56;4924598;29;20050;-66
2023/04/01 05:28:22;;;;;;;55.45;40.53;;;;;;;21.71;74.10;98705.69;4930805;29;20050;-67
2023/04/01 05:30:52;;;;;;;54.97;39.80;;;;;;;21.53;73.41;98704.28;4947601;29;20078;-64
2023/04/01 05:33:24;;;;;;;54.43;39.23;;;;;;;21.73;75.22;98707.03;4576770;29;9999803;-64
2023/04/01 05:35:56;;;;;;;56.10;38.33;;;;;;;21.68;72.73;98706.22;4925742;29;20048;-61
2023/04/01 05:38:25;;;;;;;44.78;35.33;;;;;;;21.76;73.51;98701.16;4925026;29;20543;-61
2023/04/01 05:41:00;;;;;;;43.78;32.75;;;;;;;22.04;72.44;98699.88;4924211;29;20154;-64
2023/04/01 05:43:31;;;;;;;46.80;33.70;;;;;;;22.33;71.43;98692.94;4921221;29;20146;-63
2023/04/01 05:46:10;;;;;;;42.28;32.63;;;;;;;22.31;72.41;98688.84;4942273;28;20048;-64
2023/04/01 05:48:49;;;;;;;44.20;31.33;;;;;;;22.19;70.72;98691.00;4937859;29;20056;-64
2023/04/01 05:51:20;;;;;;;38.63;29.05;;;;;;;22.06;71.02;98689.66;4926831;29;20055;-63
2023/04/01 05:53:50;;;;;;;38.83;29.13;;;;;;;22.08;72.19;98692.91;4935586;29;20055;-70
2023/04/01 05:56:20;;;;;;;37.55;28.65;;;;;;;21.87;72.23;98697.38;4948011;28;20114;-66
2023/04/01 05:58:54;;;;;;;36.90;29.85;;;;;;;21.74;72.90;98692.50;4923807;29;20141;-61
2023/04/01 06:01:24;;;;;;;;;;;;;;;21.42;72.08;98683.75;4918583;29;20160;-61
2023/04/01 06:03:54;;;;;;;38.90;29.40;;;;;;;21.06;74.02;98688.13;4601971;29;9999845;-63
2023/04/01 06:06:29;;;;;;;41.70;30.88;;;;;;;21.11;74.41;98681.97;4950584;28;20057;-63
2023/04/01 06:09:19;;;;;;;42.88;30.75;;;;;;;21.41;74.99;98690.22;4943945;29;20039;-62
2023/04/01 06:11:52;;;;;;;37.70;28.75;;;;;;;21.74;72.71;98683.59;4925706;29;20048;-66
2023/04/01 06:14:36;;;;;;;35.78;27.42;;;;;;;21.86;73.05;98678.78;4937973;29;20050;-65
2023/04/01 06:17:27;;;;;;;38.50;27.63;;;;;;;21.66;73.28;98686.81;4943002;28;20046;-67
2023/04/01 06:20:21;;;;;;;40.03;27.95;;;;;;;21.51;74.63;98679.47;4927402;29;20063;-62
2023/04/01 06:22:56;;;;;;;38.97;28.92;;;;;;;21.68;75.19;98672.00;4927429;29;20479;-63
2023/04/01 06:25:25;;;;;;;47.33;28.20;;;;;;;21.30;73.38;98675.88;4924751;29;20048;-61
2023/04/01 06:27:58;;;;;;;34.58;27.77;;;;;;;21.25;75.11;98672.34;4945134;28;20447;-61
2023/04/01 06:30:31;;;;;;;42.22;29.40;;;;;;;21.35;76.55;98670.53;4925025;29;20050;-60
2023/04/01 06:33:30;;;;;;;42.55;28.05;;;;;;;21.26;74.07;98672.09;4920223;29;20574;-62
2023/04/01 06:36:35;;;;;;;36.88;27.23;;;;;;;21.36;74.65;98669.44;4953022;28;20066;-61
2023/04/01 06:39:51;;;;;;;34.22;27.45;;;;;;;21.42;73.52;98665.69;4939602;28;20348;-60
2023/04/01 06:42:25;;;;;;;37.70;26.30;;;;;;;21.36;76.06;98655.97;4912386;28;20051;-61
2023/04/01 06:45:04;;;;;;;36.30;27.80;;;;;;;21.70;76.86;98659.06;4921183;29;20043;-63
2023/04/01 06:48:10;;;;;;;37.30;28.83;;;;;;;21.79;76.23;98653.94;4602264;28;10001631;-64
2023/04/01 06:50:58;;;;;;;37.75;27.05;;;;;;;21.67;74.51;98654.19;4943893;28;20047;-61
2023/04/01 06:54:12;;;;;;;41.13;28.52;;;;;;;21.67;76.34;98656.09;4941426;28;20062;-61
2023/04/01 06:57:32;;;;;;;34.88;26.30;;;;;;;21.52;77.43;98660.34;4865568;29;20568;-68
2023/04/01 07:00:12;;;;;;;30.20;20.10;;;;;;;22.28;75.66;98659.72;4880767;29;20594;-70
2023/04/01 07:02:53;;;;;;;31.60;22.30;;;;;;;22.64;73.99;98647.84;4908126;29;20782;-69
2023/04/01 07:05:24;;;;;;;49.60;32.83;;;;;;;22.40;72.01;98655.69;4926185;29;20051;-65
2023/04/01 07:07:58;;;;;;;38.50;28.27;;;;;;;22.52;73.76;98650.03;4927909;29;20044;-66
2023/04/01 07:11:01;;;;;;;33.67;24.48;;;;;;;22.77;73.04;98652.72;4909620;29;20043;-68
2023/04/01 07:14:01;;;;;;;38.30;26.10;;;;;;;22.81;72.74;98644.88;4936230;29;20050;-66
2023/04/01 07:16:33;;;;;;;37.42;24.40;;;;;;;22.82;72.24;98646.50;4905836;29;20068;-64
2023/04/01 07:19:53;;;;;;;37.85;26.27;;;;;;;22.50;72.87;98654.06;4906474;29;20740;-64
2023/04/01 07:22:32;;;;;;;39.97;25.80;;;;;;;22.35;74.05;98644.06;4864879;29;20583;-65
2023/04/01 07:25:18;;;;;;;33.70;25.55;;;;;;;21.98;75.00;98641.63;4870014;29;20060;-65
2023/04/01 07:28:04;;;;;;;38.60;26.15;;;;;;;21.42;75.78;98646.81;4907209;29;20051;-65
2023/04/01 07:31:24;;;;;;;35.85;25.15;;;;;;;21.71;75.88;98646.38;4903844;29;20040;-63
2023/04/01 07:34:33;;;;;;;34.13;25.00;;;;;;;21.32;76.33;98637.91;4915684;29;20119;-64
2023/04/01 07:37:42;;;;;;;35.35;23.02;;;;;;;21.69;75.64;98638.56;4894336;29;20039;-64
2023/04/01 07:40:25;;;;;;;47.40;22.15;;;;;;;21.97;74.63;98640.00;4924909;29;20055;-65
2023/04/01 07:43:38;;;;;;;29.00;21.10;;;;;;;21.41;75.28;98639.84;4922235;29;20716;-66
2023/04/01 07:46:37;;;;;;;33.35;23.27;;;;;;;21.05;77.75;98632.63;4914348;29;20052;-66
2023/04/01 07:49:12;;;;;;;31.42;23.35;;;;;;;21.52;77.18;98624.50;4904094;29;20062;-66
2023/04/01 07:52:15;;;;;;;28.63;22.33;;;;;;;22.30;74.20;98619.81;4908783;29;20115;-67
2023/04/01 07:54:56;;;;;;;29.75;21.38;;;;;;;22.47;73.29;98614.94;4916019;29;20158;-66
2023/04/01 07:57:57;;;;;;;25.70;20.63;;;;;;;22.74;72.41;98614.66;4918969;29;20051;-66
2023/04/01 08:01:01;;;;;;;33.03;23.23;;;;;;;23.02;71.63;98611.31;4908868;29;20046;-66
2023/04/01 08:04:09;;;;;;;44.90;28.10;;;;;;;23.00;71.68;98616.22;4891095;29;20063;-64
2023/04/01 08:07:03;;;;;;;48.50;30.23;;;;;;;22.78;72.58;98610.31;4923568;29;20123;-65
2023/04/01 08:10:12;;;;;;;51.97;32.38;;;;;;;23.05;71.59;98604.56;4909176;29;20056;-66
2023/04/01 08:13:38;;;;;;;44.13;32.72;;;;;;;22.40;71.61;98606.28;4923258;29;20062;-65
2023/04/01 08:16:52;;;;;;;49.80;36.65;;;;;;;21.67;75.79;98594.09;4922183;29;20600;-66
2023/04/01 08:19:51;;;;;;;40.78;33.58;;;;;;;21.52;76.26;98601.06;4917696;29;20047;-66
2023/04/01 08:22:38;;;;;;;39.50;31.30;;;;;;;22.14;74.24;98586.59;4906975;29;20055;-65
2023/04/01 08:25:27;;;;;;;40.63;30.73;;;;;;;22.56;73.72;98585.50;4920560;29;20126;-66
2023/04/01 08:28:24;;;;;;;39.78;29.23;;;;;;;22.47;71.33;98584.44;4911479;29;20669;-65
2023/04/01 08:31:10;;;;;;;38.67;28.35;;;;;;;22.37;72.99;98583.34;4900897;29;20048;-66
2023/04/01 08:33:46;;;;;;;40.33;27.92;;;;;;;22.36;72.60;98578.22;4904620;29;20059;-66
2023/04/01 08:36:19;;;;;;;33.60;27.25;;;;;;;21.70;73.34;98575.47;4906006;29;20044;-64
2023/04/01 08:39:18;;;;;;;34.90;27.92;;;;;;;22.73;71.67;98577.94;4908320;29;20043;-65
2023/04/01 08:42:19;;;;;;;35.75;27.15;;;;;;;23.05;70.46;98569.47;4910554;29;20144;-66
2023/04/01 08:45:42;;;;;;;43.75;28.80;;;;;;;23.52;69.04;98556.25;4916033;29;20055;-64
2023/04/01 08:48:48;;;;;;;39.95;29.98;;;;;;;22.98;70.57;98548.13;4910136;29;20051;-66
2023/04/01 08:51:20;;;;;;;36.78;27.88;;;;;;;23.36;69.23;98551.19;4924773;29;20067;-66
2023/04/01 08:54:31;;;;;;;38.42;27.02;;;;;;;23.56;68.86;98543.81;4909423;29;20873;-67
2023/04/01 08:57:08;;;;;;;37.85;27.95;;;;;;;23.62;68.65;98542.69;4906867;29;20773;-66
2023/04/01 09:00:00;;;;;;;42.35;30.83;;;;;;;23.29;68.73;98538.78;4925990;29;20044;-66
2023/04/01 09:03:20;;;;;;;37.50;30.60;;;;;;;23.26;69.76;98544.75;4915113;28;20048;-66
2023/04/01 09:06:20;;;;;;;39.88;32.17;;;;;;;22.79;70.84;98539.03;4927157;29;20056;-67
2023/04/01 09:09:00;;;;;;;43.97;34.00;;;;;;;22.10;70.40;98534.28;4931868;29;20071;-66
2023/04/01 09:11:33;;;;;;;39.28;30.52;;;;;;;22.75;70.88;98524.44;4925108;29;20051;-67
2023/04/01 09:14:29;;;;;;;41.25;32.33;;;;;;;22.86;69.38;98517.13;4940499;28;20047;-68
2023/04/01 09:17:57;;;;;;;41.40;32.22;;;;;;;22.36;70.91;98508.88;4929398;29;20047;-68
2023/04/01 09:20:47;;;;;;;41.97;32.53;;;;;;;22.59;70.91;98504.78;4941941;29;20066;-68
2023/04/01 09:23:34;;;;;;;39.72;29.83;;;;;;;23.05;69.66;98501.91;4943401;29;20047;-66
2023/04/01 09:26:09;;;;;;;41.20;32.58;;;;;;;22.84;68.20;98501.19;4943562;29;20051;-66
2023/04/01 09:28:55;;;;;;;35.17;29.55;;;;;;;22.83;68.66;98492.31;4927884;29;20055;-67
2023/04/01 09:31:48;;;;;;;38.45;30.15;;;;;;;22.25;69.85;98501.91;4935734;29;20056;-67
2023/04/01 09:35:19;;;;;;;40.25;31.92;;;;;;;22.23;71.10;98495.13;4941333;28;20047;-68
2023/04/01 09:37:55;;;;;;;38.75;28.77;;;;;;;22.20;71.07;98493.00;4923609;29;20142;-68
2023/04/01 09:40:55;;;;;;;38.80;28.42;;;;;;;22.22;70.56;98488.13;4941310;29;20066;-67
2023/04/01 09:44:03;;;;;;;40.95;29.67;;;;;;;22.49;69.84;98477.00;4924386;29;20056;-67
2023/04/01 09:46:44;;;;;;;35.83;27.73;;;;;;;22.52;69.25;98474.56;4933522;29;20047;-67
2023/04/01 09:49:31;;;;;;;36.25;27.98;;;;;;;22.55;69.84;98470.50;4939512;29;20061;-67
2023/04/01 09:52:19;;;;;;;35.90;28.85;;;;;;;22.30;68.61;98466.00;4923308;29;20891;-65
2023/04/01 09:55:15;;;;;;;35.88;28.27;;;;;;;22.46;68.32;98469.44;4942883;29;20050;-67
2023/04/01 09:57:54;;;;;;;34.75;28.00;;;;;;;22.24;68.79;98467.09;4934859;29;20143;-67
2023/04/01 10:01:03;;;;;;;37.13;29.00;;;;;;;22.54;69.18;98455.38;4922403;29;20079;-67
2023/04/01 10:04:17;;;;;;;36.05;26.77;;;;;;;22.98;68.64;98445.47;4925269;29;20154;-68
2023/04/01 10:07:18;;;;;;;33.45;25.85;;;;;;;23.27;66.92;98451.00;4921633;29;20137;-67
2023/04/01 10:09:57;;;;;;;36.40;27.58;;;;;;;22.81;66.77;98439.63;4944688;28;20051;-68
2023/04/01 10:12:41;;;;;;;33.58;25.95;;;;;;;23.01;67.94;98433.31;4945221;28;20052;-68
2023/04/01 10:15:28;;;;;;;;;;;;;;;23.12;68.15;98432.16;4946924;28;20462;-68
2023/04/01 10:18:53;;;;;;;29.33;21.15;;;;;;;22.55;67.65;98440.81;4943703;29;19926;-68
2023/04/01 10:21:23;;;;;;;27.15;21.80;;;;;;;22.68;68.74;98432.09;4929240;28;20061;-68
2023/04/01 10:24:05;;;;;;;27.90;19.63;;;;;;;22.75;68.22;98435.34;4958595;28;20055;-64
2023/04/01 10:27:04;;;;;;;28.27;21.90;;;;;;;22.30;67.43;98439.81;4944084;28;20154;-65
2023/04/01 10:30:24;;;;;;;27.42;19.60;;;;;;;22.79;68.34;98418.28;4940484;28;20069;-66
2023/04/01 10:33:34;;;;;;;26.42;20.05;;;;;;;22.80;67.39;98421.81;4923224;28;20054;-67
2023/04/01 10:36:34;;;;;;;19.15;16.48;;;;;;;22.70;68.19;98416.47;4943234;28;20078;-67
2023/04/01 10:39:22;;;;;;;22.75;17.70;;;;;;;22.54;69.12;98413.00;4925019;28;20043;-67
2023/04/01 10:42:07;;;;;;;20.25;16.17;;;;;;;22.60;69.15;98411.09;4941151;28;20135;-65
2023/04/01 10:45:15;;;;;;;20.65;16.98;;;;;;;22.32;69.48;98412.56;4938366;28;20090;-66
2023/04/01 10:48:09;;;;;;;19.75;16.33;;;;;;;22.70;68.80;98405.69;4943761;29;20043;-66
2023/04/01 10:50:56;;;;;;;20.27;15.38;;;;;;;22.24;68.19;98397.75;4943456;28;20062;-67
2023/04/01 10:53:41;;;;;;;22.15;17.33;;;;;;;22.70;69.39;98397.59;4941235;28;20487;-65
2023/04/01 10:57:04;;;;;;;19.13;16.50;;;;;;;22.42;69.45;98390.94;4946387;28;20062;-66
2023/04/01 11:00:12;;;;;;;24.80;16.85;;;;;;;22.44;68.33;98399.53;4924460;28;20081;-65
2023/04/01 11:03:18;;;;;;;23.48;15.65;;;;;;;22.10;69.45;98396.72;4939112;28;20062;-65
2023/04/01 11:06:13;;;;;;;19.10;15.27;;;;;;;22.19;68.94;98410.44;4949140;28;20047;-66
2023/04/01 11:09:12;;;;;;;20.98;15.18;;;;;;;22.28;68.28;98411.50;4942119;28;20062;-64
2023/04/01 11:12:30;;;;;;;17.65;13.35;;;;;;;22.14;69.24;98403.16;4936842;28;20117;-65
2023/04/01 11:15:40;;;;;;;17.08;13.35;;;;;;;22.37;69.11;98401.75;4903709;29;20212;-65
2023/04/01 11:18:39;;;;;;;17.40;11.32;;;;;;;21.98;69.62;98398.91;4885723;29;20051;-66
2023/04/01 11:21:48;;;;;;;19.95;11.25;;;;;;;21.94;70.06;98400.53;4940574;28;20079;-65
2023/04/01 11:24:44;;;;;;;15.30;11.50;;;;;;;21.84;71.32;98412.09;4938422;28;20479;-66
2023/04/01 11:27:44;;;;;;;14.95;11.40;;;;;;;21.36;71.32;98402.72;4934444;29;20047;-66
2023/04/01 11:30:16;;;;;;;17.70;11.50;;;;;;;21.61;71.20;98409.97;4940934;28;20066;-66
2023/04/01 11:32:54;;;;;;;13.77;10.70;;;;;;;21.69;71.27;98408.59;4948762;28;20051;-66
2023/04/01 11:35:37;;;;;;;13.18;10.93;;;;;;;21.52;70.95;98408.91;4941808;28;20151;-66
2023/04/01 11:38:43;;;;;;;16.77;10.23;;;;;;;21.22;70.76;98398.94;4941901;28;20062;-64
2023/04/01 11:41:44;;;;;;;13.90;10.50;;;;;;;21.24;70.44;98401.38;4931778;28;20055;-66
2023/04/01 11:44:58;;;;;;;16.17;10.52;;;;;;;21.67;69.08;98402.69;4936858;28;20051;-65
2023/04/01 11:47:56;;;;;;;12.50;9.45;;;;;;;21.50;69.63;98408.38;4942697;28;20059;-66
2023/04/01 11:50:44;;;;;;;15.45;10.10;;;;;;;21.48;71.05;98403.25;4941506;28;20102;-67
2023/04/01 11:53:30;;;;;;;16.67;10.63;;;;;;;21.28;70.30;98407.84;4937988;29;20069;-66
2023/04/01 11:56:02;;;;;;;15.68;9.15;;;;;;;21.36;70.40;98413.50;4940829;28;20059;-65
2023/04/01 11:58:40;;;;;;;11.75;9.60;;;;;;;21.10;69.91;98406.44;4938400;28;20047;-67
2023/04/01 12:01:27;;;;;;;13.70;9.38;;;;;;;21.31;70.10;98407.28;4933490;29;20047;-67
2023/04/01 12:04:24;;;;;;;13.98;9.25;;;;;;;21.78;70.73;98409.69;4917640;28;20047;-66
2023/04/01 12:07:12;;;;;;;12.32;9.50;;;;;;;21.36;68.55;98408.09;4917517;28;20500;-64
2023/04/01 12:09:42;;;;;;;13.02;9.32;;;;;;;21.89;69.99;98405.91;4929592;28;20059;-67
2023/04/01 12:12:18;;;;;;;11.27;8.90;;;;;;;21.89;69.20;98408.59;4920296;28;20131;-67
2023/04/01 12:15:23;;;;;;;14.82;8.82;;;;;;;21.92;69.46;98418.84;4922579;29;20066;-67
2023/04/01 12:18:25;;;;;;;10.85;7.60;;;;;;;21.90;68.82;98407.53;4930241;28;20055;-66
2023/04/01 12:21:10;;;;;;;9.10;7.50;;;;;;;21.41;69.02;98410.81;4930053;28;20745;-65
2023/04/01 12:24:00;;;;;;;9.48;7.43;;;;;;;21.35;69.51;98413.75;4922971;29;20111;-65
2023/04/01 12:27:00;;;;;;;15.02;7.88;;;;;;;21.49;70.89;98418.34;4935190;28;20055;-66
2023/04/01 12:29:55;;;;;;;13.75;7.18;;;;;;;21.37;68.71;98420.50;4932580;28;20054;-66
2023/04/01 12:32:33;;;;;;;;;;;;;;;21.08;68.89;98412.09;4933033;28;20058;-65